sensor_id;sensor_type;location;lat;lon;timestamp;P1;durP1;ratioP1;P2;durP2;ratioP2
61250;SDS011;47126;47.508;8.590;2023-06-10T00:02:07;9.35;;;5.90;;
61250;SDS011;47126;47.508;8.590;2023-06-10T00:04:33;8.15;;;5.47;;
61250;SDS011;47126;47.508;8.590;2023-06-10T00:07:01;9.07;;;5.65;;
61250;SDS011;47126;47.508;8.590;2023-06-10T00:09:27;9.68;;;5.28;;
61250;SDS011;47126;47.508;8.590;2023-06-10T00:11:54;9.52;;;5.40;;
61250;SDS011;47126;47.508;8.590;2023-06-10T00:14:20;9.38;;;5.28;;
61250;SDS011;47126;47.508;8.590;2023-06-10T00:16:46;9.45;;;5.78;;
61250;SDS011;47126;47.508;8.590;2023-06-10T00:19:12;8.55;;;5.07;;
61250;SDS011;47126;47.508;8.590;2023-06-10T00:21:41;10.10;;;5.90;;
61250;SDS011;47126;47.508;8.590;2023-06-10T00:26:37;10.45;;;5.45;;
61250;SDS011;47126;47.508;8.590;2023-06-10T00:29:04;12.80;;;5.53;;
61250;SDS011;47126;47.508;8.590;2023-06-10T00:31:30;10.55;;;5.60;;
61250;SDS011;47126;47.508;8.590;2023-06-10T00:33:56;9.65;;;5.53;;
61250;SDS011;47126;47.508;8.590;2023-06-10T00:36:23;11.32;;;5.97;;
61250;SDS011;47126;47.508;8.590;2023-06-10T00:38:49;10.90;;;6.03;;
61250;SDS011;47126;47.508;8.590;2023-06-10T00:41:15;13.52;;;6.55;;
61250;SDS011;47126;47.508;8.590;2023-06-10T00:43:42;10.85;;;5.95;;
61250;SDS011;47126;47.508;8.590;2023-06-10T00:46:08;9.57;;;5.82;;
61250;SDS011;47126;47.508;8.590;2023-06-10T00:48:34;12.25;;;6.05;;
61250;SDS011;47126;47.508;8.590;2023-06-10T00:51:00;10.63;;;6.63;;
61250;SDS011;47126;47.508;8.590;2023-06-10T00:53:26;11.35;;;6.45;;
61250;SDS011;47126;47.508;8.590;2023-06-10T00:55:53;11.35;;;6.50;;
61250;SDS011;47126;47.508;8.590;2023-06-10T00:58:19;9.55;;;5.80;;
61250;SDS011;47126;47.508;8.590;2023-06-10T01:00:45;11.30;;;6.18;;
61250;SDS011;47126;47.508;8.590;2023-06-10T01:03:11;10.23;;;6.00;;
61250;SDS011;47126;47.508;8.590;2023-06-10T01:05:38;12.93;;;6.43;;
61250;SDS011;47126;47.508;8.590;2023-06-10T01:10:50;11.73;;;6.38;;
61250;SDS011;47126;47.508;8.590;2023-06-10T01:13:18;10.40;;;5.90;;
61250;SDS011;47126;47.508;8.590;2023-06-10T01:15:45;9.73;;;5.93;;
61250;SDS011;47126;47.508;8.590;2023-06-10T01:18:11;17.10;;;6.85;;
61250;SDS011;47126;47.508;8.590;2023-06-10T01:20:42;10.50;;;6.63;;
61250;SDS011;47126;47.508;8.590;2023-06-10T01:23:09;11.55;;;6.50;;
61250;SDS011;47126;47.508;8.590;2023-06-10T01:25:39;9.85;;;6.63;;
61250;SDS011;47126;47.508;8.590;2023-06-10T01:31:23;11.13;;;7.10;;
61250;SDS011;47126;47.508;8.590;2023-06-10T01:33:28;10.52;;;6.65;;
61250;SDS011;47126;47.508;8.590;2023-06-10T01:35:54;11.15;;;6.97;;
61250;SDS011;47126;47.508;8.590;2023-06-10T01:38:21;10.27;;;6.95;;
61250;SDS011;47126;47.508;8.590;2023-06-10T01:40:49;11.82;;;6.30;;
61250;SDS011;47126;47.508;8.590;2023-06-10T01:43:15;11.07;;;7.32;;
61250;SDS011;47126;47.508;8.590;2023-06-10T01:45:41;11.90;;;6.78;;
61250;SDS011;47126;47.508;8.590;2023-06-10T01:48:07;11.30;;;7.10;;
61250;SDS011;47126;47.508;8.590;2023-06-10T01:50:33;11.23;;;6.88;;
61250;SDS011;47126;47.508;8.590;2023-06-10T01:52:59;13.15;;;7.22;;
61250;SDS011;47126;47.508;8.590;2023-06-10T01:55:25;12.10;;;7.05;;
61250;SDS011;47126;47.508;8.590;2023-06-10T01:57:51;10.85;;;7.18;;
61250;SDS011;47126;47.508;8.590;2023-06-10T02:00:17;17.08;;;8.95;;
61250;SDS011;47126;47.508;8.590;2023-06-10T02:02:43;12.00;;;7.95;;
61250;SDS011;47126;47.508;8.590;2023-06-10T02:05:09;11.55;;;7.75;;
61250;SDS011;47126;47.508;8.590;2023-06-10T02:07:36;12.93;;;7.82;;
61250;SDS011;47126;47.508;8.590;2023-06-10T02:10:03;11.68;;;7.45;;
61250;SDS011;47126;47.508;8.590;2023-06-10T02:12:29;11.30;;;7.22;;
61250;SDS011;47126;47.508;8.590;2023-06-10T02:14:55;11.60;;;7.47;;
61250;SDS011;47126;47.508;8.590;2023-06-10T02:17:21;13.23;;;7.93;;
61250;SDS011;47126;47.508;8.590;2023-06-10T02:19:48;13.18;;;7.78;;
61250;SDS011;47126;47.508;8.590;2023-06-10T02:22:19;16.05;;;8.02;;
61250;SDS011;47126;47.508;8.590;2023-06-10T02:24:45;11.98;;;7.30;;
61250;SDS011;47126;47.508;8.590;2023-06-10T02:27:11;13.50;;;7.35;;
61250;SDS011;47126;47.508;8.590;2023-06-10T02:29:37;14.30;;;8.07;;
61250;SDS011;47126;47.508;8.590;2023-06-10T02:32:03;14.43;;;7.43;;
61250;SDS011;47126;47.508;8.590;2023-06-10T02:34:29;12.07;;;7.15;;
61250;SDS011;47126;47.508;8.590;2023-06-10T02:36:56;16.67;;;7.68;;
61250;SDS011;47126;47.508;8.590;2023-06-10T02:39:22;17.70;;;8.65;;
61250;SDS011;47126;47.508;8.590;2023-06-10T02:41:48;15.07;;;7.60;;
61250;SDS011;47126;47.508;8.590;2023-06-10T02:44:14;13.27;;;8.15;;
61250;SDS011;47126;47.508;8.590;2023-06-10T02:46:40;16.00;;;8.48;;
61250;SDS011;47126;47.508;8.590;2023-06-10T02:49:06;12.98;;;7.93;;
61250;SDS011;47126;47.508;8.590;2023-06-10T02:51:32;13.80;;;8.63;;
61250;SDS011;47126;47.508;8.590;2023-06-10T02:53:58;14.35;;;8.52;;
61250;SDS011;47126;47.508;8.590;2023-06-10T02:56:24;14.30;;;8.05;;
61250;SDS011;47126;47.508;8.590;2023-06-10T02:58:50;12.80;;;8.38;;
61250;SDS011;47126;47.508;8.590;2023-06-10T03:01:17;16.15;;;8.25;;
61250;SDS011;47126;47.508;8.590;2023-06-10T03:03:43;13.60;;;8.20;;
61250;SDS011;47126;47.508;8.590;2023-06-10T03:06:11;13.55;;;8.48;;
61250;SDS011;47126;47.508;8.590;2023-06-10T03:08:38;12.68;;;8.55;;
61250;SDS011;47126;47.508;8.590;2023-06-10T03:11:04;12.45;;;8.57;;
61250;SDS011;47126;47.508;8.590;2023-06-10T03:13:30;14.13;;;8.90;;
61250;SDS011;47126;47.508;8.590;2023-06-10T03:15:56;15.85;;;8.55;;
61250;SDS011;47126;47.508;8.590;2023-06-10T03:18:25;13.73;;;8.50;;
61250;SDS011;47126;47.508;8.590;2023-06-10T03:20:51;17.17;;;9.43;;
61250;SDS011;47126;47.508;8.590;2023-06-10T03:23:18;13.90;;;8.38;;
61250;SDS011;47126;47.508;8.590;2023-06-10T03:25:44;15.05;;;8.52;;
61250;SDS011;47126;47.508;8.590;2023-06-10T03:28:10;13.50;;;7.90;;
61250;SDS011;47126;47.508;8.590;2023-06-10T03:30:37;15.10;;;8.27;;
61250;SDS011;47126;47.508;8.590;2023-06-10T03:33:03;14.27;;;9.48;;
61250;SDS011;47126;47.508;8.590;2023-06-10T03:35:32;14.80;;;9.10;;
61250;SDS011;47126;47.508;8.590;2023-06-10T03:37:59;14.43;;;9.02;;
61250;SDS011;47126;47.508;8.590;2023-06-10T03:40:25;18.30;;;9.18;;
61250;SDS011;47126;47.508;8.590;2023-06-10T03:42:52;16.45;;;9.13;;
61250;SDS011;47126;47.508;8.590;2023-06-10T03:45:18;15.48;;;8.63;;
61250;SDS011;47126;47.508;8.590;2023-06-10T03:47:44;16.35;;;9.40;;
61250;SDS011;47126;47.508;8.590;2023-06-10T03:50:10;17.45;;;9.43;;
61250;SDS011;47126;47.508;8.590;2023-06-10T03:52:37;15.13;;;8.35;;
61250;SDS011;47126;47.508;8.590;2023-06-10T03:55:04;13.18;;;8.45;;
61250;SDS011;47126;47.508;8.590;2023-06-10T03:57:30;15.60;;;9.13;;
61250;SDS011;47126;47.508;8.590;2023-06-10T03:59:56;13.32;;;8.82;;
61250;SDS011;47126;47.508;8.590;2023-06-10T04:02:22;12.77;;;8.18;;
61250;SDS011;47126;47.508;8.590;2023-06-10T04:04:48;13.95;;;9.02;;
61250;SDS011;47126;47.508;8.590;2023-06-10T04:07:16;13.13;;;8.65;;
61250;SDS011;47126;47.508;8.590;2023-06-10T04:09:43;13.95;;;8.77;;
61250;SDS011;47126;47.508;8.590;2023-06-10T04:12:09;14.48;;;8.88;;
61250;SDS011;47126;47.508;8.590;2023-06-10T04:14:36;19.20;;;9.73;;
61250;SDS011;47126;47.508;8.590;2023-06-10T04:17:02;14.95;;;8.82;;
61250;SDS011;47126;47.508;8.590;2023-06-10T04:19:31;15.75;;;9.63;;
61250;SDS011;47126;47.508;8.590;2023-06-10T04:21:57;18.67;;;10.23;;
61250;SDS011;47126;47.508;8.590;2023-06-10T04:24:23;13.23;;;8.75;;
61250;SDS011;47126;47.508;8.590;2023-06-10T04:26:50;15.40;;;9.52;;
61250;SDS011;47126;47.508;8.590;2023-06-10T04:29:16;15.32;;;9.15;;
61250;SDS011;47126;47.508;8.590;2023-06-10T04:31:42;16.27;;;9.45;;
61250;SDS011;47126;47.508;8.590;2023-06-10T04:34:08;17.33;;;9.02;;
61250;SDS011;47126;47.508;8.590;2023-06-10T04:36:34;13.07;;;8.43;;
61250;SDS011;47126;47.508;8.590;2023-06-10T04:39:00;15.82;;;8.60;;
61250;SDS011;47126;47.508;8.590;2023-06-10T04:41:26;17.20;;;9.63;;
61250;SDS011;47126;47.508;8.590;2023-06-10T04:43:53;13.75;;;9.07;;
61250;SDS011;47126;47.508;8.590;2023-06-10T04:46:19;18.35;;;10.02;;
61250;SDS011;47126;47.508;8.590;2023-06-10T04:48:45;12.73;;;8.75;;
61250;SDS011;47126;47.508;8.590;2023-06-10T04:51:12;18.70;;;8.98;;
61250;SDS011;47126;47.508;8.590;2023-06-10T04:53:38;16.75;;;9.32;;
61250;SDS011;47126;47.508;8.590;2023-06-10T04:56:05;16.30;;;9.07;;
61250;SDS011;47126;47.508;8.590;2023-06-10T04:58:32;13.10;;;9.00;;
61250;SDS011;47126;47.508;8.590;2023-06-10T05:00:58;15.30;;;10.50;;
61250;SDS011;47126;47.508;8.590;2023-06-10T05:03:25;16.70;;;10.52;;
61250;SDS011;47126;47.508;8.590;2023-06-10T05:05:51;17.23;;;9.32;;
61250;SDS011;47126;47.508;8.590;2023-06-10T05:08:17;15.07;;;9.25;;
61250;SDS011;47126;47.508;8.590;2023-06-10T05:10:43;16.88;;;9.60;;
61250;SDS011;47126;47.508;8.590;2023-06-10T05:13:09;15.38;;;8.80;;
61250;SDS011;47126;47.508;8.590;2023-06-10T05:15:35;17.45;;;9.57;;
61250;SDS011;47126;47.508;8.590;2023-06-10T05:18:02;13.65;;;9.00;;
61250;SDS011;47126;47.508;8.590;2023-06-10T05:20:28;13.30;;;9.50;;
61250;SDS011;47126;47.508;8.590;2023-06-10T05:22:54;15.70;;;9.85;;
61250;SDS011;47126;47.508;8.590;2023-06-10T05:25:21;13.75;;;9.43;;
61250;SDS011;47126;47.508;8.590;2023-06-10T05:27:47;14.60;;;9.50;;
61250;SDS011;47126;47.508;8.590;2023-06-10T05:30:13;15.82;;;9.52;;
61250;SDS011;47126;47.508;8.590;2023-06-10T05:32:40;14.77;;;10.07;;
61250;SDS011;47126;47.508;8.590;2023-06-10T05:35:06;14.05;;;9.32;;
61250;SDS011;47126;47.508;8.590;2023-06-10T05:37:33;19.98;;;9.75;;
61250;SDS011;47126;47.508;8.590;2023-06-10T05:40:01;17.08;;;10.18;;
61250;SDS011;47126;47.508;8.590;2023-06-10T05:42:29;14.88;;;9.43;;
61250;SDS011;47126;47.508;8.590;2023-06-10T05:44:55;15.68;;;9.27;;
61250;SDS011;47126;47.508;8.590;2023-06-10T05:47:21;15.25;;;9.70;;
61250;SDS011;47126;47.508;8.590;2023-06-10T05:49:47;15.55;;;10.05;;
61250;SDS011;47126;47.508;8.590;2023-06-10T05:52:14;15.38;;;10.02;;
61250;SDS011;47126;47.508;8.590;2023-06-10T05:54:40;15.13;;;9.82;;
61250;SDS011;47126;47.508;8.590;2023-06-10T05:57:06;15.00;;;9.75;;
61250;SDS011;47126;47.508;8.590;2023-06-10T05:59:32;14.88;;;9.85;;
61250;SDS011;47126;47.508;8.590;2023-06-10T06:01:58;18.23;;;9.73;;
61250;SDS011;47126;47.508;8.590;2023-06-10T06:04:24;16.85;;;11.80;;
61250;SDS011;47126;47.508;8.590;2023-06-10T06:06:50;16.13;;;10.80;;
61250;SDS011;47126;47.508;8.590;2023-06-10T06:09:16;15.23;;;9.40;;
61250;SDS011;47126;47.508;8.590;2023-06-10T06:11:43;11.73;;;9.00;;
61250;SDS011;47126;47.508;8.590;2023-06-10T06:14:09;14.10;;;9.43;;
61250;SDS011;47126;47.508;8.590;2023-06-10T06:16:35;13.30;;;8.55;;
61250;SDS011;47126;47.508;8.590;2023-06-10T06:19:01;17.13;;;9.63;;
61250;SDS011;47126;47.508;8.590;2023-06-10T06:21:27;13.02;;;8.85;;
61250;SDS011;47126;47.508;8.590;2023-06-10T06:23:53;16.48;;;9.05;;
61250;SDS011;47126;47.508;8.590;2023-06-10T06:26:19;12.55;;;8.75;;
61250;SDS011;47126;47.508;8.590;2023-06-10T06:28:45;22.65;;;8.75;;
61250;SDS011;47126;47.508;8.590;2023-06-10T06:31:11;15.75;;;8.98;;
61250;SDS011;47126;47.508;8.590;2023-06-10T06:33:37;13.05;;;8.43;;
61250;SDS011;47126;47.508;8.590;2023-06-10T06:36:03;12.38;;;8.57;;
61250;SDS011;47126;47.508;8.590;2023-06-10T06:38:29;15.65;;;8.85;;
61250;SDS011;47126;47.508;8.590;2023-06-10T06:40:55;14.70;;;8.75;;
61250;SDS011;47126;47.508;8.590;2023-06-10T06:43:22;12.27;;;8.57;;
61250;SDS011;47126;47.508;8.590;2023-06-10T06:45:48;12.88;;;8.90;;
61250;SDS011;47126;47.508;8.590;2023-06-10T06:48:14;14.30;;;9.07;;
61250;SDS011;47126;47.508;8.590;2023-06-10T06:50:40;11.75;;;8.50;;
61250;SDS011;47126;47.508;8.590;2023-06-10T06:53:07;13.25;;;9.13;;
61250;SDS011;47126;47.508;8.590;2023-06-10T06:55:33;14.38;;;8.50;;
61250;SDS011;47126;47.508;8.590;2023-06-10T06:57:59;18.70;;;8.25;;
61250;SDS011;47126;47.508;8.590;2023-06-10T07:00:29;13.38;;;8.73;;
61250;SDS011;47126;47.508;8.590;2023-06-10T07:02:55;15.93;;;9.50;;
61250;SDS011;47126;47.508;8.590;2023-06-10T07:05:23;14.18;;;8.85;;
61250;SDS011;47126;47.508;8.590;2023-06-10T07:07:52;15.10;;;9.15;;
61250;SDS011;47126;47.508;8.590;2023-06-10T07:10:20;12.40;;;8.85;;
61250;SDS011;47126;47.508;8.590;2023-06-10T07:12:47;13.32;;;8.60;;
61250;SDS011;47126;47.508;8.590;2023-06-10T07:15:13;12.75;;;9.63;;
61250;SDS011;47126;47.508;8.590;2023-06-10T07:17:39;14.00;;;9.00;;
61250;SDS011;47126;47.508;8.590;2023-06-10T07:20:05;14.77;;;8.70;;
61250;SDS011;47126;47.508;8.590;2023-06-10T07:22:31;11.98;;;8.50;;
61250;SDS011;47126;47.508;8.590;2023-06-10T07:24:57;13.45;;;8.73;;
61250;SDS011;47126;47.508;8.590;2023-06-10T07:27:23;13.07;;;8.55;;
61250;SDS011;47126;47.508;8.590;2023-06-10T07:29:50;11.98;;;8.57;;
61250;SDS011;47126;47.508;8.590;2023-06-10T07:32:16;14.45;;;9.00;;
61250;SDS011;47126;47.508;8.590;2023-06-10T07:34:42;11.65;;;8.48;;
61250;SDS011;47126;47.508;8.590;2023-06-10T07:37:08;12.20;;;8.50;;
61250;SDS011;47126;47.508;8.590;2023-06-10T07:39:34;15.52;;;9.05;;
61250;SDS011;47126;47.508;8.590;2023-06-10T07:42:00;12.95;;;8.82;;
61250;SDS011;47126;47.508;8.590;2023-06-10T07:44:27;17.85;;;8.18;;
61250;SDS011;47126;47.508;8.590;2023-06-10T07:46:53;14.68;;;9.15;;
61250;SDS011;47126;47.508;8.590;2023-06-10T07:49:19;12.10;;;8.70;;
61250;SDS011;47126;47.508;8.590;2023-06-10T07:51:45;13.05;;;9.27;;
61250;SDS011;47126;47.508;8.590;2023-06-10T07:54:11;16.83;;;8.95;;
61250;SDS011;47126;47.508;8.590;2023-06-10T07:56:40;14.18;;;9.75;;
61250;SDS011;47126;47.508;8.590;2023-06-10T07:59:06;16.02;;;9.23;;
61250;SDS011;47126;47.508;8.590;2023-06-10T08:01:32;12.27;;;9.02;;
61250;SDS011;47126;47.508;8.590;2023-06-10T08:03:58;24.95;;;9.82;;
61250;SDS011;47126;47.508;8.590;2023-06-10T08:06:24;16.00;;;9.05;;
61250;SDS011;47126;47.508;8.590;2023-06-10T08:08:50;12.25;;;9.05;;
61250;SDS011;47126;47.508;8.590;2023-06-10T08:11:16;12.48;;;9.40;;
61250;SDS011;47126;47.508;8.590;2023-06-10T08:13:42;12.15;;;8.68;;
61250;SDS011;47126;47.508;8.590;2023-06-10T08:16:08;14.18;;;8.80;;
61250;SDS011;47126;47.508;8.590;2023-06-10T08:18:35;12.55;;;8.57;;
61250;SDS011;47126;47.508;8.590;2023-06-10T08:21:01;12.65;;;9.15;;
61250;SDS011;47126;47.508;8.590;2023-06-10T08:23:27;14.25;;;8.15;;
61250;SDS011;47126;47.508;8.590;2023-06-10T08:25:53;14.23;;;8.32;;
61250;SDS011;47126;47.508;8.590;2023-06-10T08:28:19;12.65;;;9.07;;
61250;SDS011;47126;47.508;8.590;2023-06-10T08:30:45;13.52;;;9.18;;
61250;SDS011;47126;47.508;8.590;2023-06-10T08:33:11;12.50;;;9.15;;
61250;SDS011;47126;47.508;8.590;2023-06-10T08:35:37;12.77;;;8.90;;
61250;SDS011;47126;47.508;8.590;2023-06-10T08:38:03;13.95;;;8.73;;
61250;SDS011;47126;47.508;8.590;2023-06-10T08:40:29;11.90;;;8.38;;
61250;SDS011;47126;47.508;8.590;2023-06-10T08:43:00;15.57;;;8.68;;
61250;SDS011;47126;47.508;8.590;2023-06-10T08:45:27;13.43;;;8.38;;
61250;SDS011;47126;47.508;8.590;2023-06-10T08:47:54;17.67;;;10.50;;
61250;SDS011;47126;47.508;8.590;2023-06-10T08:50:22;18.90;;;11.25;;
61250;SDS011;47126;47.508;8.590;2023-06-10T08:52:50;13.70;;;8.77;;
61250;SDS011;47126;47.508;8.590;2023-06-10T08:57:51;10.95;;;7.88;;
61250;SDS011;47126;47.508;8.590;2023-06-10T09:00:17;13.05;;;8.10;;
61250;SDS011;47126;47.508;8.590;2023-06-10T09:02:44;11.88;;;8.45;;
61250;SDS011;47126;47.508;8.590;2023-06-10T09:05:12;11.85;;;8.65;;
61250;SDS011;47126;47.508;8.590;2023-06-10T09:07:39;21.55;;;8.20;;
61250;SDS011;47126;47.508;8.590;2023-06-10T09:10:05;12.63;;;7.97;;
61250;SDS011;47126;47.508;8.590;2023-06-10T09:12:32;10.93;;;7.47;;
61250;SDS011;47126;47.508;8.590;2023-06-10T09:15:00;14.38;;;8.38;;
61250;SDS011;47126;47.508;8.590;2023-06-10T09:17:26;11.38;;;7.72;;
61250;SDS011;47126;47.508;8.590;2023-06-10T09:19:52;10.13;;;7.70;;
61250;SDS011;47126;47.508;8.590;2023-06-10T09:22:21;14.65;;;7.35;;
61250;SDS011;47126;47.508;8.590;2023-06-10T09:24:47;10.73;;;6.93;;
61250;SDS011;47126;47.508;8.590;2023-06-10T09:27:13;10.25;;;7.32;;
61250;SDS011;47126;47.508;8.590;2023-06-10T09:32:12;8.27;;;6.35;;
61250;SDS011;47126;47.508;8.590;2023-06-10T09:34:39;8.10;;;6.00;;
61250;SDS011;47126;47.508;8.590;2023-06-10T09:37:06;8.95;;;6.38;;
61250;SDS011;47126;47.508;8.590;2023-06-10T09:39:33;9.77;;;6.13;;
61250;SDS011;47126;47.508;8.590;2023-06-10T09:41:59;8.00;;;5.75;;
61250;SDS011;47126;47.508;8.590;2023-06-10T09:44:25;9.25;;;5.55;;
61250;SDS011;47126;47.508;8.590;2023-06-10T09:46:52;7.38;;;5.50;;
61250;SDS011;47126;47.508;8.590;2023-06-10T09:49:19;10.52;;;6.30;;
61250;SDS011;47126;47.508;8.590;2023-06-10T09:51:52;16.10;;;7.65;;
61250;SDS011;47126;47.508;8.590;2023-06-10T09:54:22;9.20;;;5.85;;
61250;SDS011;47126;47.508;8.590;2023-06-10T09:56:48;12.88;;;6.60;;
61250;SDS011;47126;47.508;8.590;2023-06-10T09:59:15;8.75;;;6.53;;
61250;SDS011;47126;47.508;8.590;2023-06-10T10:01:41;10.60;;;7.18;;
61250;SDS011;47126;47.508;8.590;2023-06-10T10:04:07;10.75;;;6.68;;
61250;SDS011;47126;47.508;8.590;2023-06-10T10:06:33;10.35;;;6.82;;
61250;SDS011;47126;47.508;8.590;2023-06-10T10:09:00;8.25;;;6.07;;
61250;SDS011;47126;47.508;8.590;2023-06-10T10:11:26;8.85;;;6.57;;
61250;SDS011;47126;47.508;8.590;2023-06-10T10:13:52;9.00;;;5.82;;
61250;SDS011;47126;47.508;8.590;2023-06-10T10:16:20;9.77;;;6.53;;
61250;SDS011;47126;47.508;8.590;2023-06-10T10:18:51;8.93;;;6.40;;
61250;SDS011;47126;47.508;8.590;2023-06-10T10:21:20;11.98;;;7.18;;
61250;SDS011;47126;47.508;8.590;2023-06-10T10:26:22;27.85;;;8.00;;
61250;SDS011;47126;47.508;8.590;2023-06-10T10:28:51;12.38;;;7.55;;
61250;SDS011;47126;47.508;8.590;2023-06-10T10:31:19;11.32;;;7.28;;
61250;SDS011;47126;47.508;8.590;2023-06-10T10:33:57;10.35;;;6.55;;
61250;SDS011;47126;47.508;8.590;2023-06-10T10:36:24;9.65;;;6.53;;
61250;SDS011;47126;47.508;8.590;2023-06-10T10:38:51;12.40;;;8.13;;
61250;SDS011;47126;47.508;8.590;2023-06-10T10:41:17;10.27;;;7.07;;
61250;SDS011;47126;47.508;8.590;2023-06-10T10:43:44;10.82;;;7.50;;
61250;SDS011;47126;47.508;8.590;2023-06-10T10:46:14;16.38;;;6.70;;
61250;SDS011;47126;47.508;8.590;2023-06-10T10:48:40;10.15;;;6.93;;
61250;SDS011;47126;47.508;8.590;2023-06-10T10:51:07;12.50;;;6.65;;
61250;SDS011;47126;47.508;8.590;2023-06-10T10:53:33;14.88;;;7.90;;
61250;SDS011;47126;47.508;8.590;2023-06-10T10:56:06;9.82;;;6.88;;
61250;SDS011;47126;47.508;8.590;2023-06-10T10:58:33;11.38;;;7.40;;
61250;SDS011;47126;47.508;8.590;2023-06-10T11:00:59;11.38;;;6.45;;
61250;SDS011;47126;47.508;8.590;2023-06-10T11:03:29;10.20;;;6.15;;
61250;SDS011;47126;47.508;8.590;2023-06-10T11:05:57;12.70;;;5.78;;
61250;SDS011;47126;47.508;8.590;2023-06-10T11:10:58;12.57;;;6.10;;
61250;SDS011;47126;47.508;8.590;2023-06-10T11:13:25;12.35;;;5.95;;
61250;SDS011;47126;47.508;8.590;2023-06-10T11:15:51;6.97;;;5.03;;
61250;SDS011;47126;47.508;8.590;2023-06-10T11:26:10;8.98;;;5.80;;
61250;SDS011;47126;47.508;8.590;2023-06-10T11:28:36;8.35;;;6.13;;
61250;SDS011;47126;47.508;8.590;2023-06-10T11:31:02;9.18;;;6.07;;
61250;SDS011;47126;47.508;8.590;2023-06-10T11:33:28;9.82;;;6.00;;
61250;SDS011;47126;47.508;8.590;2023-06-10T11:35:55;8.57;;;5.70;;
61250;SDS011;47126;47.508;8.590;2023-06-10T11:38:21;7.57;;;5.70;;
61250;SDS011;47126;47.508;8.590;2023-06-10T11:40:50;13.90;;;6.28;;
61250;SDS011;47126;47.508;8.590;2023-06-10T11:43:17;8.45;;;5.82;;
61250;SDS011;47126;47.508;8.590;2023-06-10T11:45:43;8.65;;;5.97;;
61250;SDS011;47126;47.508;8.590;2023-06-10T11:48:09;37.55;;;6.40;;
61250;SDS011;47126;47.508;8.590;2023-06-10T11:50:36;7.28;;;5.70;;
61250;SDS011;47126;47.508;8.590;2023-06-10T11:53:02;8.95;;;5.90;;
61250;SDS011;47126;47.508;8.590;2023-06-10T11:55:41;12.85;;;6.40;;
61250;SDS011;47126;47.508;8.590;2023-06-10T11:58:15;8.60;;;5.97;;
61250;SDS011;47126;47.508;8.590;2023-06-10T12:00:54;13.23;;;6.28;;
61250;SDS011;47126;47.508;8.590;2023-06-10T12:03:22;6.85;;;5.05;;
61250;SDS011;47126;47.508;8.590;2023-06-10T12:05:58;8.60;;;5.80;;
61250;SDS011;47126;47.508;8.590;2023-06-10T12:08:25;8.07;;;5.38;;
61250;SDS011;47126;47.508;8.590;2023-06-10T12:10:52;13.18;;;5.43;;
61250;SDS011;47126;47.508;8.590;2023-06-10T12:13:18;9.23;;;5.85;;
61250;SDS011;47126;47.508;8.590;2023-06-10T12:15:44;11.43;;;6.30;;
61250;SDS011;47126;47.508;8.590;2023-06-10T12:20:43;10.75;;;5.75;;
61250;SDS011;47126;47.508;8.590;2023-06-10T12:23:09;8.57;;;5.45;;
61250;SDS011;47126;47.508;8.590;2023-06-10T12:25:36;9.60;;;6.22;;
61250;SDS011;47126;47.508;8.590;2023-06-10T12:28:03;9.32;;;5.88;;
61250;SDS011;47126;47.508;8.590;2023-06-10T12:30:29;8.90;;;5.50;;
61250;SDS011;47126;47.508;8.590;2023-06-10T12:32:56;8.63;;;5.95;;
61250;SDS011;47126;47.508;8.590;2023-06-10T12:35:23;7.38;;;5.25;;
61250;SDS011;47126;47.508;8.590;2023-06-10T12:40:25;9.05;;;5.32;;
61250;SDS011;47126;47.508;8.590;2023-06-10T12:42:52;7.05;;;5.35;;
61250;SDS011;47126;47.508;8.590;2023-06-10T12:45:25;7.32;;;5.47;;
61250;SDS011;47126;47.508;8.590;2023-06-10T12:48:03;9.00;;;5.53;;
61250;SDS011;47126;47.508;8.590;2023-06-10T12:50:30;9.00;;;5.60;;
61250;SDS011;47126;47.508;8.590;2023-06-10T12:52:56;7.97;;;5.05;;
61250;SDS011;47126;47.508;8.590;2023-06-10T12:55:22;5.82;;;3.85;;
61250;SDS011;47126;47.508;8.590;2023-06-10T12:57:49;12.15;;;5.03;;
61250;SDS011;47126;47.508;8.590;2023-06-10T13:00:15;6.38;;;4.25;;
61250;SDS011;47126;47.508;8.590;2023-06-10T13:02:41;8.82;;;5.68;;
61250;SDS011;47126;47.508;8.590;2023-06-10T13:05:08;8.90;;;5.35;;
61250;SDS011;47126;47.508;8.590;2023-06-10T13:07:34;18.77;;;5.65;;
61250;SDS011;47126;47.508;8.590;2023-06-10T13:10:00;8.85;;;4.43;;
61250;SDS011;47126;47.508;8.590;2023-06-10T13:12:26;6.85;;;4.43;;
61250;SDS011;47126;47.508;8.590;2023-06-10T13:14:54;6.75;;;4.60;;
61250;SDS011;47126;47.508;8.590;2023-06-10T13:17:20;9.23;;;5.47;;
61250;SDS011;47126;47.508;8.590;2023-06-10T13:19:46;6.70;;;4.65;;
61250;SDS011;47126;47.508;8.590;2023-06-10T13:22:13;14.85;;;4.53;;
61250;SDS011;47126;47.508;8.590;2023-06-10T13:24:39;8.55;;;4.82;;
61250;SDS011;47126;47.508;8.590;2023-06-10T13:27:08;11.75;;;4.75;;
61250;SDS011;47126;47.508;8.590;2023-06-10T13:29:34;7.43;;;5.10;;
61250;SDS011;47126;47.508;8.590;2023-06-10T13:32:00;7.90;;;5.38;;
61250;SDS011;47126;47.508;8.590;2023-06-10T13:34:26;5.97;;;4.15;;
61250;SDS011;47126;47.508;8.590;2023-06-10T13:36:53;6.38;;;4.80;;
61250;SDS011;47126;47.508;8.590;2023-06-10T13:39:19;6.50;;;4.72;;
61250;SDS011;47126;47.508;8.590;2023-06-10T13:41:45;8.75;;;5.03;;
61250;SDS011;47126;47.508;8.590;2023-06-10T13:44:11;9.60;;;5.22;;
61250;SDS011;47126;47.508;8.590;2023-06-10T13:46:37;8.45;;;5.20;;
61250;SDS011;47126;47.508;8.590;2023-06-10T13:49:03;9.25;;;4.53;;
61250;SDS011;47126;47.508;8.590;2023-06-10T13:51:29;6.32;;;4.53;;
61250;SDS011;47126;47.508;8.590;2023-06-10T13:53:55;5.90;;;4.55;;
61250;SDS011;47126;47.508;8.590;2023-06-10T13:56:22;6.75;;;4.80;;
61250;SDS011;47126;47.508;8.590;2023-06-10T13:58:48;6.00;;;4.38;;
61250;SDS011;47126;47.508;8.590;2023-06-10T14:01:14;8.27;;;5.30;;
61250;SDS011;47126;47.508;8.590;2023-06-10T14:03:40;7.72;;;5.13;;
61250;SDS011;47126;47.508;8.590;2023-06-10T14:06:06;9.35;;;5.18;;
61250;SDS011;47126;47.508;8.590;2023-06-10T14:08:32;6.75;;;4.70;;
61250;SDS011;47126;47.508;8.590;2023-06-10T14:10:58;6.57;;;4.82;;
61250;SDS011;47126;47.508;8.590;2023-06-10T14:13:24;6.47;;;4.57;;
61250;SDS011;47126;47.508;8.590;2023-06-10T14:15:50;9.10;;;4.75;;
61250;SDS011;47126;47.508;8.590;2023-06-10T14:18:23;8.27;;;4.32;;
61250;SDS011;47126;47.508;8.590;2023-06-10T14:20:49;7.70;;;5.32;;
61250;SDS011;47126;47.508;8.590;2023-06-10T14:23:15;6.82;;;5.10;;
61250;SDS011;47126;47.508;8.590;2023-06-10T14:25:44;7.85;;;4.75;;
61250;SDS011;47126;47.508;8.590;2023-06-10T14:28:10;8.27;;;4.95;;
61250;SDS011;47126;47.508;8.590;2023-06-10T14:30:39;8.27;;;5.65;;
61250;SDS011;47126;47.508;8.590;2023-06-10T14:33:05;6.78;;;4.50;;
61250;SDS011;47126;47.508;8.590;2023-06-10T14:35:31;7.13;;;4.75;;
61250;SDS011;47126;47.508;8.590;2023-06-10T14:37:57;8.93;;;4.70;;
61250;SDS011;47126;47.508;8.590;2023-06-10T14:40:26;19.55;;;5.28;;
61250;SDS011;47126;47.508;8.590;2023-06-10T14:42:54;7.22;;;4.72;;
61250;SDS011;47126;47.508;8.590;2023-06-10T14:45:22;8.13;;;4.78;;
61250;SDS011;47126;47.508;8.590;2023-06-10T14:47:50;9.77;;;5.10;;
61250;SDS011;47126;47.508;8.590;2023-06-10T14:50:19;9.53;;;4.40;;
61250;SDS011;47126;47.508;8.590;2023-06-10T14:52:45;6.97;;;4.90;;
61250;SDS011;47126;47.508;8.590;2023-06-10T14:55:11;7.10;;;4.50;;
61250;SDS011;47126;47.508;8.590;2023-06-10T14:57:40;7.70;;;5.18;;
61250;SDS011;47126;47.508;8.590;2023-06-10T15:02:33;11.27;;;5.68;;
61250;SDS011;47126;47.508;8.590;2023-06-10T15:05:02;8.40;;;4.65;;
61250;SDS011;47126;47.508;8.590;2023-06-10T15:07:31;8.73;;;5.03;;
61250;SDS011;47126;47.508;8.590;2023-06-10T15:09:59;6.75;;;4.90;;